sensor_id;sensor_type;location;lat;lon;timestamp;temperature;humidity
11736;DHT22;5924;51.398;7.088;2024-02-15T00:01:41;11.00;99.90
11736;DHT22;5924;51.398;7.088;2024-02-15T00:04:07;11.10;99.90
11736;DHT22;5924;51.398;7.088;2024-02-15T00:06:33;11.10;99.90
11736;DHT22;5924;51.398;7.088;2024-02-15T00:08:59;11.10;99.90
11736;DHT22;5924;51.398;7.088;2024-02-15T00:11:24;11.10;99.90
11736;DHT22;5924;51.398;7.088;2024-02-15T00:13:50;11.10;99.90
11736;DHT22;5924;51.398;7.088;2024-02-15T00:16:16;9.90;99.90
11736;DHT22;5924;51.398;7.088;2024-02-15T00:18:42;11.10;99.90
11736;DHT22;5924;51.398;7.088;2024-02-15T00:21:07;11.10;99.90
11736;DHT22;5924;51.398;7.088;2024-02-15T00:23:33;11.10;99.90
11736;DHT22;5924;51.398;7.088;2024-02-15T00:25:59;11.10;99.90
11736;DHT22;5924;51.398;7.088;2024-02-15T00:28:24;11.10;99.90
11736;DHT22;5924;51.398;7.088;2024-02-15T00:30:52;11.10;99.90
11736;DHT22;5924;51.398;7.088;2024-02-15T00:33:18;11.10;99.90
11736;DHT22;5924;51.398;7.088;2024-02-15T00:35:44;11.10;99.90
11736;DHT22;5924;51.398;7.088;2024-02-15T00:38:10;11.10;99.90
11736;DHT22;5924;51.398;7.088;2024-02-15T00:40:35;11.10;99.90
11736;DHT22;5924;51.398;7.088;2024-02-15T00:43:01;11.10;99.90
11736;DHT22;5924;51.398;7.088;2024-02-15T00:45:27;11.10;99.90
11736;DHT22;5924;51.398;7.088;2024-02-15T00:47:52;11.10;99.90
11736;DHT22;5924;51.398;7.088;2024-02-15T00:50:19;11.10;99.90
11736;DHT22;5924;51.398;7.088;2024-02-15T00:52:45;11.10;99.90
11736;DHT22;5924;51.398;7.088;2024-02-15T00:55:10;11.10;99.90
11736;DHT22;5924;51.398;7.088;2024-02-15T00:57:36;11.10;99.90
11736;DHT22;5924;51.398;7.088;2024-02-15T01:00:03;11.10;99.90
11736;DHT22;5924;51.398;7.088;2024-02-15T01:02:29;11.10;99.90
11736;DHT22;5924;51.398;7.088;2024-02-15T01:04:55;11.10;99.90
11736;DHT22;5924;51.398;7.088;2024-02-15T01:07:22;11.10;99.90
11736;DHT22;5924;51.398;7.088;2024-02-15T01:09:51;11.20;99.90
11736;DHT22;5924;51.398;7.088;2024-02-15T01:12:17;11.10;99.90
11736;DHT22;5924;51.398;7.088;2024-02-15T01:14:42;11.10;99.90
11736;DHT22;5924;51.398;7.088;2024-02-15T01:17:09;11.10;99.90
11736;DHT22;5924;51.398;7.088;2024-02-15T01:19:34;11.10;99.90
11736;DHT22;5924;51.398;7.088;2024-02-15T01:22:00;11.10;99.90
11736;DHT22;5924;51.398;7.088;2024-02-15T01:24:26;11.10;99.90
11736;DHT22;5924;51.398;7.088;2024-02-15T01:26:52;11.20;99.90
11736;DHT22;5924;51.398;7.088;2024-02-15T01:29:18;11.10;99.90
11736;DHT22;5924;51.398;7.088;2024-02-15T01:31:44;11.10;99.90
11736;DHT22;5924;51.398;7.088;2024-02-15T01:34:10;11.10;99.90
11736;DHT22;5924;51.398;7.088;2024-02-15T01:36:36;11.10;99.90
11736;DHT22;5924;51.398;7.088;2024-02-15T01:39:01;11.10;99.90
11736;DHT22;5924;51.398;7.088;2024-02-15T01:41:27;11.10;99.90
11736;DHT22;5924;51.398;7.088;2024-02-15T01:43:53;11.10;99.90
11736;DHT22;5924;51.398;7.088;2024-02-15T01:46:19;11.10;99.90
11736;DHT22;5924;51.398;7.088;2024-02-15T01:48:46;11.10;99.90
11736;DHT22;5924;51.398;7.088;2024-02-15T01:51:13;11.10;99.90
11736;DHT22;5924;51.398;7.088;2024-02-15T01:53:41;11.10;99.90
11736;DHT22;5924;51.398;7.088;2024-02-15T01:56:08;11.10;99.90
11736;DHT22;5924;51.398;7.088;2024-02-15T01:58:34;11.10;99.90
11736;DHT22;5924;51.398;7.088;2024-02-15T02:01:01;11.00;99.90
11736;DHT22;5924;51.398;7.088;2024-02-15T02:03:27;11.00;99.90
11736;DHT22;5924;51.398;7.088;2024-02-15T02:05:53;11.00;99.90
11736;DHT22;5924;51.398;7.088;2024-02-15T02:08:19;11.00;99.90
11736;DHT22;5924;51.398;7.088;2024-02-15T02:10:45;11.00;99.90
11736;DHT22;5924;51.398;7.088;2024-02-15T02:13:11;10.90;99.90
11736;DHT22;5924;51.398;7.088;2024-02-15T02:15:37;10.90;99.90
11736;DHT22;5924;51.398;7.088;2024-02-15T02:18:04;10.90;99.90
11736;DHT22;5924;51.398;7.088;2024-02-15T02:20:34;12.60;99.90
11736;DHT22;5924;51.398;7.088;2024-02-15T02:23:13;10.90;99.90
11736;DHT22;5924;51.398;7.088;2024-02-15T02:25:40;11.00;99.90
11736;DHT22;5924;51.398;7.088;2024-02-15T02:28:08;11.00;99.90
11736;DHT22;5924;51.398;7.088;2024-02-15T02:30:34;11.10;99.90
11736;DHT22;5924;51.398;7.088;2024-02-15T02:33:00;11.10;99.90
11736;DHT22;5924;51.398;7.088;2024-02-15T02:35:27;11.10;99.90
11736;DHT22;5924;51.398;7.088;2024-02-15T02:37:56;11.10;99.90
11736;DHT22;5924;51.398;7.088;2024-02-15T02:40:21;11.10;99.90
11736;DHT22;5924;51.398;7.088;2024-02-15T02:42:54;11.10;99.90
11736;DHT22;5924;51.398;7.088;2024-02-15T02:45:26;11.10;99.90
11736;DHT22;5924;51.398;7.088;2024-02-15T02:47:52;11.10;99.90
11736;DHT22;5924;51.398;7.088;2024-02-15T02:50:18;11.10;99.90
11736;DHT22;5924;51.398;7.088;2024-02-15T02:52:44;11.10;99.90
11736;DHT22;5924;51.398;7.088;2024-02-15T02:55:10;11.10;99.90
11736;DHT22;5924;51.398;7.088;2024-02-15T02:57:37;11.10;99.90
11736;DHT22;5924;51.398;7.088;2024-02-15T03:00:09;11.10;99.90
11736;DHT22;5924;51.398;7.088;2024-02-15T03:02:40;11.10;99.90
11736;DHT22;5924;51.398;7.088;2024-02-15T03:05:07;11.10;99.90
11736;DHT22;5924;51.398;7.088;2024-02-15T03:07:37;11.10;99.90
11736;DHT22;5924;51.398;7.088;2024-02-15T03:10:04;11.10;99.90
11736;DHT22;5924;51.398;7.088;2024-02-15T03:12:30;11.10;99.90
11736;DHT22;5924;51.398;7.088;2024-02-15T03:14:56;11.10;99.90
11736;DHT22;5924;51.398;7.088;2024-02-15T03:17:25;11.10;99.90
11736;DHT22;5924;51.398;7.088;2024-02-15T03:19:51;11.10;99.90
11736;DHT22;5924;51.398;7.088;2024-02-15T03:22:17;11.20;99.90
11736;DHT22;5924;51.398;7.088;2024-02-15T03:24:42;11.20;99.90
11736;DHT22;5924;51.398;7.088;2024-02-15T03:27:08;11.20;99.90
11736;DHT22;5924;51.398;7.088;2024-02-15T03:29:38;11.20;99.90
11736;DHT22;5924;51.398;7.088;2024-02-15T03:32:03;11.20;99.90
11736;DHT22;5924;51.398;7.088;2024-02-15T03:34:30;11.20;99.90
11736;DHT22;5924;51.398;7.088;2024-02-15T03:36:57;11.20;99.90
11736;DHT22;5924;51.398;7.088;2024-02-15T03:39:23;11.20;99.90
11736;DHT22;5924;51.398;7.088;2024-02-15T03:41:49;11.20;99.90
11736;DHT22;5924;51.398;7.088;2024-02-15T03:44:17;11.20;99.90
11736;DHT22;5924;51.398;7.088;2024-02-15T03:46:44;11.20;99.90
11736;DHT22;5924;51.398;7.088;2024-02-15T03:49:17;11.20;99.90
11736;DHT22;5924;51.398;7.088;2024-02-15T03:51:43;11.30;99.90
11736;DHT22;5924;51.398;7.088;2024-02-15T03:54:10;10.90;99.90
11736;DHT22;5924;51.398;7.088;2024-02-15T03:56:36;10.60;99.90
11736;DHT22;5924;51.398;7.088;2024-02-15T03:59:03;11.30;99.90
11736;DHT22;5924;51.398;7.088;2024-02-15T04:01:30;11.30;99.90
11736;DHT22;5924;51.398;7.088;2024-02-15T04:03:59;11.30;99.90
11736;DHT22;5924;51.398;7.088;2024-02-15T04:06:25;11.30;99.90
11736;DHT22;5924;51.398;7.088;2024-02-15T04:08:53;11.30;99.90
11736;DHT22;5924;51.398;7.088;2024-02-15T04:11:19;11.30;99.90
11736;DHT22;5924;51.398;7.088;2024-02-15T04:13:45;11.30;99.90
11736;DHT22;5924;51.398;7.088;2024-02-15T04:16:11;11.30;99.90
11736;DHT22;5924;51.398;7.088;2024-02-15T04:18:36;11.30;99.90
11736;DHT22;5924;51.398;7.088;2024-02-15T04:21:03;11.30;99.90
11736;DHT22;5924;51.398;7.088;2024-02-15T04:23:31;11.30;99.90
11736;DHT22;5924;51.398;7.088;2024-02-15T04:25:57;11.30;99.90
11736;DHT22;5924;51.398;7.088;2024-02-15T04:28:25;11.20;99.90
11736;DHT22;5924;51.398;7.088;2024-02-15T04:30:52;11.20;99.90
11736;DHT22;5924;51.398;7.088;2024-02-15T04:33:18;11.20;99.90
11736;DHT22;5924;51.398;7.088;2024-02-15T04:35:43;11.20;99.90
11736;DHT22;5924;51.398;7.088;2024-02-15T04:38:10;11.20;99.90
11736;DHT22;5924;51.398;7.088;2024-02-15T04:40:36;11.20;99.90
11736;DHT22;5924;51.398;7.088;2024-02-15T04:43:04;11.30;99.90
11736;DHT22;5924;51.398;7.088;2024-02-15T04:45:30;11.20;99.90
11736;DHT22;5924;51.398;7.088;2024-02-15T04:47:56;11.20;99.90
11736;DHT22;5924;51.398;7.088;2024-02-15T04:50:22;11.30;99.90
11736;DHT22;5924;51.398;7.088;2024-02-15T04:52:48;11.30;99.90
11736;DHT22;5924;51.398;7.088;2024-02-15T04:55:15;12.40;99.90
11736;DHT22;5924;51.398;7.088;2024-02-15T04:57:41;11.30;99.90
11736;DHT22;5924;51.398;7.088;2024-02-15T05:00:07;11.30;99.90
11736;DHT22;5924;51.398;7.088;2024-02-15T05:02:38;11.40;99.90
11736;DHT22;5924;51.398;7.088;2024-02-15T05:05:09;11.30;99.90
11736;DHT22;5924;51.398;7.088;2024-02-15T05:07:35;11.30;99.90
11736;DHT22;5924;51.398;7.088;2024-02-15T05:10:03;11.30;99.90
11736;DHT22;5924;51.398;7.088;2024-02-15T05:12:31;11.30;99.90
11736;DHT22;5924;51.398;7.088;2024-02-15T05:14:59;11.30;99.90
11736;DHT22;5924;51.398;7.088;2024-02-15T05:17:24;11.20;99.90
11736;DHT22;5924;51.398;7.088;2024-02-15T05:19:50;11.60;99.90
11736;DHT22;5924;51.398;7.088;2024-02-15T05:22:16;11.20;99.90
11736;DHT22;5924;51.398;7.088;2024-02-15T05:24:41;11.20;99.90
11736;DHT22;5924;51.398;7.088;2024-02-15T05:27:07;11.20;99.90
11736;DHT22;5924;51.398;7.088;2024-02-15T05:29:32;11.30;99.90
11736;DHT22;5924;51.398;7.088;2024-02-15T05:32:00;11.30;99.90
11736;DHT22;5924;51.398;7.088;2024-02-15T05:34:26;11.30;99.90
11736;DHT22;5924;51.398;7.088;2024-02-15T05:36:55;11.30;99.90
11736;DHT22;5924;51.398;7.088;2024-02-15T05:39:20;11.30;99.90
11736;DHT22;5924;51.398;7.088;2024-02-15T05:41:47;11.30;99.90
11736;DHT22;5924;51.398;7.088;2024-02-15T05:44:13;11.30;99.90
11736;DHT22;5924;51.398;7.088;2024-02-15T05:46:44;11.30;99.90
11736;DHT22;5924;51.398;7.088;2024-02-15T05:49:10;11.30;99.90
11736;DHT22;5924;51.398;7.088;2024-02-15T05:51:41;11.30;99.90
11736;DHT22;5924;51.398;7.088;2024-02-15T05:54:06;11.30;99.90
11736;DHT22;5924;51.398;7.088;2024-02-15T05:56:32;11.30;99.90
11736;DHT22;5924;51.398;7.088;2024-02-15T05:58:58;11.30;99.90
11736;DHT22;5924;51.398;7.088;2024-02-15T06:01:23;11.30;99.90
11736;DHT22;5924;51.398;7.088;2024-02-15T06:03:49;11.30;99.90
11736;DHT22;5924;51.398;7.088;2024-02-15T06:06:16;11.30;99.90
11736;DHT22;5924;51.398;7.088;2024-02-15T06:08:46;11.30;99.90
11736;DHT22;5924;51.398;7.088;2024-02-15T06:11:12;11.30;99.90
11736;DHT22;5924;51.398;7.088;2024-02-15T06:13:38;11.30;99.90
11736;DHT22;5924;51.398;7.088;2024-02-15T06:16:03;11.30;99.90
11736;DHT22;5924;51.398;7.088;2024-02-15T06:18:34;11.30;99.90
11736;DHT22;5924;51.398;7.088;2024-02-15T06:21:00;11.30;99.90
11736;DHT22;5924;51.398;7.088;2024-02-15T06:23:27;11.30;99.90
11736;DHT22;5924;51.398;7.088;2024-02-15T06:25:54;11.30;99.90
11736;DHT22;5924;51.398;7.088;2024-02-15T06:28:20;11.30;99.90
11736;DHT22;5924;51.398;7.088;2024-02-15T06:31:09;11.30;99.90
11736;DHT22;5924;51.398;7.088;2024-02-15T06:33:54;11.30;99.90
11736;DHT22;5924;51.398;7.088;2024-02-15T06:36:52;9.90;99.90
11736;DHT22;5924;51.398;7.088;2024-02-15T06:39:37;11.30;99.90
11736;DHT22;5924;51.398;7.088;2024-02-15T06:42:15;11.30;99.90
11736;DHT22;5924;51.398;7.088;2024-02-15T06:44:44;11.30;99.90
11736;DHT22;5924;51.398;7.088;2024-02-15T06:47:09;11.30;99.90
11736;DHT22;5924;51.398;7.088;2024-02-15T06:49:37;11.30;99.90
11736;DHT22;5924;51.398;7.088;2024-02-15T06:52:08;11.30;99.90
11736;DHT22;5924;51.398;7.088;2024-02-15T06:54:35;11.30;99.90
11736;DHT22;5924;51.398;7.088;2024-02-15T06:57:02;11.30;99.90
11736;DHT22;5924;51.398;7.088;2024-02-15T06:59:28;11.30;99.90
11736;DHT22;5924;51.398;7.088;2024-02-15T07:01:53;11.30;99.90
11736;DHT22;5924;51.398;7.088;2024-02-15T07:04:20;11.30;99.90
11736;DHT22;5924;51.398;7.088;2024-02-15T07:06:46;11.30;99.90
11736;DHT22;5924;51.398;7.088;2024-02-15T07:09:14;11.40;99.90
11736;DHT22;5924;51.398;7.088;2024-02-15T07:11:44;11.40;99.90
11736;DHT22;5924;51.398;7.088;2024-02-15T07:14:12;11.40;99.90
11736;DHT22;5924;51.398;7.088;2024-02-15T07:16:38;11.40;99.90
11736;DHT22;5924;51.398;7.088;2024-02-15T07:19:04;10.10;99.90
11736;DHT22;5924;51.398;7.088;2024-02-15T07:21:30;11.50;99.90
11736;DHT22;5924;51.398;7.088;2024-02-15T07:23:57;11.50;99.90
11736;DHT22;5924;51.398;7.088;2024-02-15T07:26:26;11.50;99.90
11736;DHT22;5924;51.398;7.088;2024-02-15T07:28:53;11.50;99.90
11736;DHT22;5924;51.398;7.088;2024-02-15T07:31:22;11.50;99.90
11736;DHT22;5924;51.398;7.088;2024-02-15T07:33:50;11.50;99.90
11736;DHT22;5924;51.398;7.088;2024-02-15T07:36:23;11.60;99.90
11736;DHT22;5924;51.398;7.088;2024-02-15T07:38:53;11.60;99.90
11736;DHT22;5924;51.398;7.088;2024-02-15T07:41:21;11.60;99.90
11736;DHT22;5924;51.398;7.088;2024-02-15T07:43:51;11.60;99.90
11736;DHT22;5924;51.398;7.088;2024-02-15T07:46:21;11.60;99.90
11736;DHT22;5924;51.398;7.088;2024-02-15T07:48:47;11.60;99.90
11736;DHT22;5924;51.398;7.088;2024-02-15T07:51:17;11.60;99.90
11736;DHT22;5924;51.398;7.088;2024-02-15T07:53:43;11.60;99.90
11736;DHT22;5924;51.398;7.088;2024-02-15T07:56:10;11.60;99.90
11736;DHT22;5924;51.398;7.088;2024-02-15T07:58:54;11.60;99.90
11736;DHT22;5924;51.398;7.088;2024-02-15T08:01:20;11.60;99.90
11736;DHT22;5924;51.398;7.088;2024-02-15T08:03:48;11.60;99.90
11736;DHT22;5924;51.398;7.088;2024-02-15T08:06:15;11.60;99.90
11736;DHT22;5924;51.398;7.088;2024-02-15T08:08:42;11.50;99.90
11736;DHT22;5924;51.398;7.088;2024-02-15T08:11:11;11.60;99.90
11736;DHT22;5924;51.398;7.088;2024-02-15T08:14:00;11.50;99.90
11736;DHT22;5924;51.398;7.088;2024-02-15T08:16:26;9.90;99.90
11736;DHT22;5924;51.398;7.088;2024-02-15T08:18:55;11.60;99.90
11736;DHT22;5924;51.398;7.088;2024-02-15T08:21:27;11.70;99.90
11736;DHT22;5924;51.398;7.088;2024-02-15T08:23:55;13.20;99.90
11736;DHT22;5924;51.398;7.088;2024-02-15T08:26:21;11.80;99.90
11736;DHT22;5924;51.398;7.088;2024-02-15T08:28:47;11.80;99.90
11736;DHT22;5924;51.398;7.088;2024-02-15T08:31:12;11.80;99.90
11736;DHT22;5924;51.398;7.088;2024-02-15T08:33:41;11.90;99.90
11736;DHT22;5924;51.398;7.088;2024-02-15T08:36:08;11.90;99.90
11736;DHT22;5924;51.398;7.088;2024-02-15T08:38:36;11.80;99.90
11736;DHT22;5924;51.398;7.088;2024-02-15T08:41:03;11.80;99.90
11736;DHT22;5924;51.398;7.088;2024-02-15T08:43:32;11.80;99.90
11736;DHT22;5924;51.398;7.088;2024-02-15T08:45:58;11.80;99.90
11736;DHT22;5924;51.398;7.088;2024-02-15T08:48:24;11.70;99.90
11736;DHT22;5924;51.398;7.088;2024-02-15T08:50:53;11.70;99.90
11736;DHT22;5924;51.398;7.088;2024-02-15T08:53:19;11.70;99.90
11736;DHT22;5924;51.398;7.088;2024-02-15T08:55:45;11.60;99.90
11736;DHT22;5924;51.398;7.088;2024-02-15T08:58:11;11.60;99.90
11736;DHT22;5924;51.398;7.088;2024-02-15T09:00:37;11.60;99.90
11736;DHT22;5924;51.398;7.088;2024-02-15T09:03:20;13.50;99.90
11736;DHT22;5924;51.398;7.088;2024-02-15T09:05:46;11.60;99.90
11736;DHT22;5924;51.398;7.088;2024-02-15T09:08:12;11.30;99.90
11736;DHT22;5924;51.398;7.088;2024-02-15T09:10:38;11.80;99.90
11736;DHT22;5924;51.398;7.088;2024-02-15T09:13:04;11.80;99.90
11736;DHT22;5924;51.398;7.088;2024-02-15T09:15:31;11.90;99.90
11736;DHT22;5924;51.398;7.088;2024-02-15T09:17:57;12.00;99.90
11736;DHT22;5924;51.398;7.088;2024-02-15T09:20:24;12.10;99.90
11736;DHT22;5924;51.398;7.088;2024-02-15T09:22:54;12.10;99.90
11736;DHT22;5924;51.398;7.088;2024-02-15T09:25:21;12.20;99.90
11736;DHT22;5924;51.398;7.088;2024-02-15T09:27:51;12.20;99.90
11736;DHT22;5924;51.398;7.088;2024-02-15T09:30:17;12.20;99.90
11736;DHT22;5924;51.398;7.088;2024-02-15T09:32:44;12.20;99.90
11736;DHT22;5924;51.398;7.088;2024-02-15T09:35:11;12.20;99.90
11736;DHT22;5924;51.398;7.088;2024-02-15T09:37:45;12.30;99.90
11736;DHT22;5924;51.398;7.088;2024-02-15T09:40:12;12.30;99.90
11736;DHT22;5924;51.398;7.088;2024-02-15T09:42:39;12.40;99.90
11736;DHT22;5924;51.398;7.088;2024-02-15T09:45:08;12.50;99.90
11736;DHT22;5924;51.398;7.088;2024-02-15T09:47:38;12.50;99.90
11736;DHT22;5924;51.398;7.088;2024-02-15T09:50:15;12.60;99.90
11736;DHT22;5924;51.398;7.088;2024-02-15T09:52:51;12.70;99.90
11736;DHT22;5924;51.398;7.088;2024-02-15T09:55:17;12.80;99.90
11736;DHT22;5924;51.398;7.088;2024-02-15T09:57:45;12.70;99.90
11736;DHT22;5924;51.398;7.088;2024-02-15T10:00:14;12.70;99.90
11736;DHT22;5924;51.398;7.088;2024-02-15T10:02:41;12.60;99.90
11736;DHT22;5924;51.398;7.088;2024-02-15T10:05:10;12.60;99.90
11736;DHT22;5924;51.398;7.088;2024-02-15T10:07:41;12.60;99.90
11736;DHT22;5924;51.398;7.088;2024-02-15T10:10:19;12.60;99.90
11736;DHT22;5924;51.398;7.088;2024-02-15T10:12:49;12.70;99.90
11736;DHT22;5924;51.398;7.088;2024-02-15T10:15:37;12.70;99.90
11736;DHT22;5924;51.398;7.088;2024-02-15T10:18:04;12.80;99.90
11736;DHT22;5924;51.398;7.088;2024-02-15T10:20:32;12.90;99.90
11736;DHT22;5924;51.398;7.088;2024-02-15T10:25:28;13.00;99.90
11736;DHT22;5924;51.398;7.088;2024-02-15T10:30:37;13.30;99.90
11736;DHT22;5924;51.398;7.088;2024-02-15T10:33:04;13.40;99.90
11736;DHT22;5924;51.398;7.088;2024-02-15T10:35:30;13.40;99.90
11736;DHT22;5924;51.398;7.088;2024-02-15T10:38:07;13.50;99.90
11736;DHT22;5924;51.398;7.088;2024-02-15T10:40:33;12.00;99.90
11736;DHT22;5924;51.398;7.088;2024-02-15T10:42:59;13.60;99.90
11736;DHT22;5924;51.398;7.088;2024-02-15T10:45:29;13.60;99.90
11736;DHT22;5924;51.398;7.088;2024-02-15T10:47:56;13.60;99.90
11736;DHT22;5924;51.398;7.088;2024-02-15T10:50:25;13.60;99.90
11736;DHT22;5924;51.398;7.088;2024-02-15T10:52:58;13.80;99.90
11736;DHT22;5924;51.398;7.088;2024-02-15T10:55:40;13.80;99.90
11736;DHT22;5924;51.398;7.088;2024-02-15T10:58:07;13.90;99.90
11736;DHT22;5924;51.398;7.088;2024-02-15T11:00:34;13.90;99.90
11736;DHT22;5924;51.398;7.088;2024-02-15T11:03:03;13.90;99.90
11736;DHT22;5924;51.398;7.088;2024-02-15T11:05:35;13.90;99.90
11736;DHT22;5924;51.398;7.088;2024-02-15T11:08:05;13.80;99.90
11736;DHT22;5924;51.398;7.088;2024-02-15T11:10:33;15.30;99.90
11736;DHT22;5924;51.398;7.088;2024-02-15T11:13:00;13.80;99.90
11736;DHT22;5924;51.398;7.088;2024-02-15T11:18:01;14.70;99.90
11736;DHT22;5924;51.398;7.088;2024-02-15T11:23:00;13.90;99.90
11736;DHT22;5924;51.398;7.088;2024-02-15T11:30:54;14.00;99.90
11736;DHT22;5924;51.398;7.088;2024-02-15T11:33:32;14.10;99.90
11736;DHT22;5924;51.398;7.088;2024-02-15T11:36:08;14.10;99.90
11736;DHT22;5924;51.398;7.088;2024-02-15T11:38:35;14.10;99.90
11736;DHT22;5924;51.398;7.088;2024-02-15T11:41:05;14.20;99.90
11736;DHT22;5924;51.398;7.088;2024-02-15T11:46:11;14.20;99.90
11736;DHT22;5924;51.398;7.088;2024-02-15T11:48:39;14.20;99.90
11736;DHT22;5924;51.398;7.088;2024-02-15T11:51:05;14.30;99.90
11736;DHT22;5924;51.398;7.088;2024-02-15T11:53:32;14.30;99.90
11736;DHT22;5924;51.398;7.088;2024-02-15T11:56:01;14.40;99.90
11736;DHT22;5924;51.398;7.088;2024-02-15T11:58:28;14.50;99.90
11736;DHT22;5924;51.398;7.088;2024-02-15T12:01:17;14.60;99.90
11736;DHT22;5924;51.398;7.088;2024-02-15T12:04:03;14.80;99.90
11736;DHT22;5924;51.398;7.088;2024-02-15T12:06:47;15.00;99.90
11736;DHT22;5924;51.398;7.088;2024-02-15T12:09:31;15.20;99.90
11736;DHT22;5924;51.398;7.088;2024-02-15T12:12:15;15.40;99.90
11736;DHT22;5924;51.398;7.088;2024-02-15T12:15:00;15.50;99.90
11736;DHT22;5924;51.398;7.088;2024-02-15T12:17:44;15.70;99.90
11736;DHT22;5924;51.398;7.088;2024-02-15T12:20:29;16.00;99.90
11736;DHT22;5924;51.398;7.088;2024-02-15T12:22:54;16.20;99.90
11736;DHT22;5924;51.398;7.088;2024-02-15T12:25:20;16.30;99.90
11736;DHT22;5924;51.398;7.088;2024-02-15T12:27:54;16.40;99.90
11736;DHT22;5924;51.398;7.088;2024-02-15T12:30:20;16.60;99.90
11736;DHT22;5924;51.398;7.088;2024-02-15T12:32:47;16.60;99.90
11736;DHT22;5924;51.398;7.088;2024-02-15T12:35:15;16.70;99.90
11736;DHT22;5924;51.398;7.088;2024-02-15T12:37:45;16.80;99.90
11736;DHT22;5924;51.398;7.088;2024-02-15T12:40:18;16.90;99.90
11736;DHT22;5924;51.398;7.088;2024-02-15T12:42:44;16.90;99.90
11736;DHT22;5924;51.398;7.088;2024-02-15T12:45:17;16.90;99.90
11736;DHT22;5924;51.398;7.088;2024-02-15T12:50:15;17.20;99.90
11736;DHT22;5924;51.398;7.088;2024-02-15T12:52:42;16.20;99.90
11736;DHT22;5924;51.398;7.088;2024-02-15T12:57:37;17.10;99.90
11736;DHT22;5924;51.398;7.088;2024-02-15T13:00:06;17.10;99.90
11736;DHT22;5924;51.398;7.088;2024-02-15T13:02:37;17.10;99.90
11736;DHT22;5924;51.398;7.088;2024-02-15T13:05:04;17.20;99.90
11736;DHT22;5924;51.398;7.088;2024-02-15T13:07:30;17.30;99.90
11736;DHT22;5924;51.398;7.088;2024-02-15T13:09:56;17.50;99.90
11736;DHT22;5924;51.398;7.088;2024-02-15T13:12:22;17.60;99.90
11736;DHT22;5924;51.398;7.088;2024-02-15T13:14:49;17.60;99.90
11736;DHT22;5924;51.398;7.088;2024-02-15T13:17:15;17.60;99.90
11736;DHT22;5924;51.398;7.088;2024-02-15T13:19:48;17.60;99.90
11736;DHT22;5924;51.398;7.088;2024-02-15T13:22:17;17.60;99.90
11736;DHT22;5924;51.398;7.088;2024-02-15T13:24:44;17.40;99.90
11736;DHT22;5924;51.398;7.088;2024-02-15T13:27:10;17.20;99.90
11736;DHT22;5924;51.398;7.088;2024-02-15T13:29:40;17.20;99.90
11736;DHT22;5924;51.398;7.088;2024-02-15T13:32:06;17.10;99.90
11736;DHT22;5924;51.398;7.088;2024-02-15T13:34:36;17.10;99.90
11736;DHT22;5924;51.398;7.088;2024-02-15T13:37:02;17.00;99.90
11736;DHT22;5924;51.398;7.088;2024-02-15T13:39:29;16.90;99.90
11736;DHT22;5924;51.398;7.088;2024-02-15T13:42:00;16.90;99.90
11736;DHT22;5924;51.398;7.088;2024-02-15T13:44:26;16.90;99.90
11736;DHT22;5924;51.398;7.088;2024-02-15T13:46:52;17.00;99.90
11736;DHT22;5924;51.398;7.088;2024-02-15T13:49:21;17.00;99.90
11736;DHT22;5924;51.398;7.088;2024-02-15T13:51:47;17.00;99.90
11736;DHT22;5924;51.398;7.088;2024-02-15T13:54:12;17.00;99.90
11736;DHT22;5924;51.398;7.088;2024-02-15T13:56:38;16.90;99.90
11736;DHT22;5924;51.398;7.088;2024-02-15T13:59:06;16.80;99.90
11736;DHT22;5924;51.398;7.088;2024-02-15T14:01:31;16.70;99.90
11736;DHT22;5924;51.398;7.088;2024-02-15T14:03:57;16.70;99.90
11736;DHT22;5924;51.398;7.088;2024-02-15T14:06:23;16.60;99.90
11736;DHT22;5924;51.398;7.088;2024-02-15T14:08:49;16.60;99.90
11736;DHT22;5924;51.398;7.088;2024-02-15T14:11:16;16.60;99.90
11736;DHT22;5924;51.398;7.088;2024-02-15T14:13:43;16.50;99.90
11736;DHT22;5924;51.398;7.088;2024-02-15T14:16:08;16.40;99.90
11736;DHT22;5924;51.398;7.088;2024-02-15T14:18:34;16.40;99.90
11736;DHT22;5924;51.398;7.088;2024-02-15T14:21:00;16.40;99.90
11736;DHT22;5924;51.398;7.088;2024-02-15T14:23:26;16.40;99.90
11736;DHT22;5924;51.398;7.088;2024-02-15T14:25:53;16.40;99.90
11736;DHT22;5924;51.398;7.088;2024-02-15T14:28:25;16.50;99.90
11736;DHT22;5924;51.398;7.088;2024-02-15T14:30:51;16.50;99.90
11736;DHT22;5924;51.398;7.088;2024-02-15T14:33:35;16.60;99.90
11736;DHT22;5924;51.398;7.088;2024-02-15T14:36:00;16.60;99.90
11736;DHT22;5924;51.398;7.088;2024-02-15T14:38:26;16.60;99.90
11736;DHT22;5924;51.398;7.088;2024-02-15T14:40:52;16.70;99.90
11736;DHT22;5924;51.398;7.088;2024-02-15T14:43:23;17.40;99.90
11736;DHT22;5924;51.398;7.088;2024-02-15T14:45:52;16.60;99.90
11736;DHT22;5924;51.398;7.088;2024-02-15T14:48:18;16.50;99.90
11736;DHT22;5924;51.398;7.088;2024-02-15T14:50:46;16.50;99.90
11736;DHT22;5924;51.398;7.088;2024-02-15T14:53:12;16.40;99.90
11736;DHT22;5924;51.398;7.088;2024-02-15T14:55:38;16.30;99.90
11736;DHT22;5924;51.398;7.088;2024-02-15T14:58:05;16.30;99.90
11736;DHT22;5924;51.398;7.088;2024-02-15T15:00:33;16.20;99.90
11736;DHT22;5924;51.398;7.088;2024-02-15T15:02:59;16.20;99.90
11736;DHT22;5924;51.398;7.088;2024-02-15T15:05:24;16.20;99.90
11736;DHT22;5924;51.398;7.088;2024-02-15T15:08:09;16.20;99.90
11736;DHT22;5924;51.398;7.088;2024-02-15T15:10:54;16.10;99.90
11736;DHT22;5924;51.398;7.088;2024-02-15T15:13:39;16.10;99.90
11736;DHT22;5924;51.398;7.088;2024-02-15T15:16:07;15.40;99.90
11736;DHT22;5924;51.398;7.088;2024-02-15T15:18:33;15.90;99.90
11736;DHT22;5924;51.398;7.088;2024-02-15T15:21:02;15.90;99.90
11736;DHT22;5924;51.398;7.088;2024-02-15T15:23:28;15.90;99.90
11736;DHT22;5924;51.398;7.088;2024-02-15T15:26:02;15.80;99.90
11736;DHT22;5924;51.398;7.088;2024-02-15T15:28:28;15.80;99.90
11736;DHT22;5924;51.398;7.088;2024-02-15T15:30:54;15.80;99.90
11736;DHT22;5924;51.398;7.088;2024-02-15T15:33:20;15.70;99.90
11736;DHT22;5924;51.398;7.088;2024-02-15T15:35:47;15.70;99.90
11736;DHT22;5924;51.398;7.088;2024-02-15T15:38:14;15.70;99.90
11736;DHT22;5924;51.398;7.088;2024-02-15T15:40:40;15.60;99.90
11736;DHT22;5924;51.398;7.088;2024-02-15T15:43:07;15.60;99.90
11736;DHT22;5924;51.398;7.088;2024-02-15T15:45:33;15.50;99.90
11736;DHT22;5924;51.398;7.088;2024-02-15T15:48:00;15.40;99.90
11736;DHT22;5924;51.398;7.088;2024-02-15T15:50:27;15.30;99.90
11736;DHT22;5924;51.398;7.088;2024-02-15T15:52:54;15.20;99.90
11736;DHT22;5924;51.398;7.088;2024-02-15T15:55:20;15.10;99.90
11736;DHT22;5924;51.398;7.088;2024-02-15T15:57:46;16.30;99.90
11736;DHT22;5924;51.398;7.088;2024-02-15T16:00:12;14.90;99.90
11736;DHT22;5924;51.398;7.088;2024-02-15T16:02:45;14.90;99.90
11736;DHT22;5924;51.398;7.088;2024-02-15T16:05:12;14.80;99.90
11736;DHT22;5924;51.398;7.088;2024-02-15T16:07:38;14.80;99.90
11736;DHT22;5924;51.398;7.088;2024-02-15T16:10:07;14.70;99.90
11736;DHT22;5924;51.398;7.088;2024-02-15T16:12:35;14.70;99.90
11736;DHT22;5924;51.398;7.088;2024-02-15T16:15:01;14.60;99.90
11736;DHT22;5924;51.398;7.088;2024-02-15T16:17:34;14.60;99.90